sensor_id;sensor_type;location;lat;lon;timestamp;P1;durP1;ratioP1;P2;durP2;ratioP2
16737;SDS011;17906;47.684;10.806;2022-08-03T00:00:48;2.67;;;1.80;;
16737;SDS011;17906;47.684;10.806;2022-08-03T00:03:15;2.77;;;1.50;;
16737;SDS011;17906;47.684;10.806;2022-08-03T00:05:41;2.10;;;1.60;;
16737;SDS011;17906;47.684;10.806;2022-08-03T00:08:09;4.10;;;1.73;;
16737;SDS011;17906;47.684;10.806;2022-08-03T00:10:36;3.60;;;1.87;;
16737;SDS011;17906;47.684;10.806;2022-08-03T00:13:03;2.33;;;1.70;;
16737;SDS011;17906;47.684;10.806;2022-08-03T00:15:29;3.40;;;1.50;;
16737;SDS011;17906;47.684;10.806;2022-08-03T00:17:56;4.07;;;1.53;;
16737;SDS011;17906;47.684;10.806;2022-08-03T00:20:23;3.73;;;1.80;;
16737;SDS011;17906;47.684;10.806;2022-08-03T00:22:50;2.43;;;1.60;;
16737;SDS011;17906;47.684;10.806;2022-08-03T00:25:18;1.80;;;1.50;;
16737;SDS011;17906;47.684;10.806;2022-08-03T00:27:45;4.77;;;1.70;;
16737;SDS011;17906;47.684;10.806;2022-08-03T00:30:11;2.23;;;1.30;;
16737;SDS011;17906;47.684;10.806;2022-08-03T00:32:38;1.30;;;1.20;;
16737;SDS011;17906;47.684;10.806;2022-08-03T00:35:05;2.23;;;1.60;;
16737;SDS011;17906;47.684;10.806;2022-08-03T00:37:32;2.47;;;1.80;;
16737;SDS011;17906;47.684;10.806;2022-08-03T00:39:59;3.63;;;1.60;;
16737;SDS011;17906;47.684;10.806;2022-08-03T00:42:27;4.30;;;1.50;;
16737;SDS011;17906;47.684;10.806;2022-08-03T00:44:53;2.60;;;1.70;;
16737;SDS011;17906;47.684;10.806;2022-08-03T00:47:20;3.90;;;1.67;;
16737;SDS011;17906;47.684;10.806;2022-08-03T00:49:47;3.87;;;1.67;;
16737;SDS011;17906;47.684;10.806;2022-08-03T00:52:13;1.47;;;1.37;;
16737;SDS011;17906;47.684;10.806;2022-08-03T00:54:41;3.20;;;1.57;;
16737;SDS011;17906;47.684;10.806;2022-08-03T00:57:08;3.30;;;1.60;;
16737;SDS011;17906;47.684;10.806;2022-08-03T00:59:37;1.73;;;1.37;;
16737;SDS011;17906;47.684;10.806;2022-08-03T01:02:03;2.63;;;1.60;;
16737;SDS011;17906;47.684;10.806;2022-08-03T01:04:30;3.80;;;1.40;;
16737;SDS011;17906;47.684;10.806;2022-08-03T01:07:00;1.60;;;0.90;;
16737;SDS011;17906;47.684;10.806;2022-08-03T01:09:34;3.63;;;1.30;;
16737;SDS011;17906;47.684;10.806;2022-08-03T01:12:06;5.50;;;1.60;;
16737;SDS011;17906;47.684;10.806;2022-08-03T01:14:40;4.20;;;1.50;;
16737;SDS011;17906;47.684;10.806;2022-08-03T01:17:12;3.23;;;1.40;;
16737;SDS011;17906;47.684;10.806;2022-08-03T01:19:44;1.80;;;1.20;;
16737;SDS011;17906;47.684;10.806;2022-08-03T01:22:17;3.30;;;1.40;;
16737;SDS011;17906;47.684;10.806;2022-08-03T01:24:59;1.60;;;1.37;;
16737;SDS011;17906;47.684;10.806;2022-08-03T01:27:35;3.23;;;1.30;;
16737;SDS011;17906;47.684;10.806;2022-08-03T01:30:14;1.70;;;1.20;;
16737;SDS011;17906;47.684;10.806;2022-08-03T01:32:41;1.63;;;1.37;;
16737;SDS011;17906;47.684;10.806;2022-08-03T01:35:15;1.80;;;1.50;;
16737;SDS011;17906;47.684;10.806;2022-08-03T01:37:49;1.93;;;1.40;;
16737;SDS011;17906;47.684;10.806;2022-08-03T01:40:18;2.63;;;1.53;;
16737;SDS011;17906;47.684;10.806;2022-08-03T01:42:47;1.80;;;1.50;;
16737;SDS011;17906;47.684;10.806;2022-08-03T01:45:18;2.20;;;1.50;;
16737;SDS011;17906;47.684;10.806;2022-08-03T01:47:47;3.80;;;1.30;;
16737;SDS011;17906;47.684;10.806;2022-08-03T01:50:15;1.70;;;1.40;;
16737;SDS011;17906;47.684;10.806;2022-08-03T01:52:44;4.37;;;1.70;;
16737;SDS011;17906;47.684;10.806;2022-08-03T01:55:13;2.90;;;1.30;;
16737;SDS011;17906;47.684;10.806;2022-08-03T01:57:44;2.87;;;1.53;;
16737;SDS011;17906;47.684;10.806;2022-08-03T02:00:14;3.77;;;1.53;;
16737;SDS011;17906;47.684;10.806;2022-08-03T02:02:42;2.10;;;1.30;;
16737;SDS011;17906;47.684;10.806;2022-08-03T02:05:13;2.53;;;1.47;;
16737;SDS011;17906;47.684;10.806;2022-08-03T02:07:40;5.47;;;1.30;;
16737;SDS011;17906;47.684;10.806;2022-08-03T02:10:09;1.73;;;1.10;;
16737;SDS011;17906;47.684;10.806;2022-08-03T02:12:38;1.40;;;1.00;;
16737;SDS011;17906;47.684;10.806;2022-08-03T02:15:05;3.30;;;1.20;;
16737;SDS011;17906;47.684;10.806;2022-08-03T02:17:33;0.80;;;0.80;;
16737;SDS011;17906;47.684;10.806;2022-08-03T02:20:02;5.40;;;1.60;;
16737;SDS011;17906;47.684;10.806;2022-08-03T02:22:29;2.70;;;1.33;;
16737;SDS011;17906;47.684;10.806;2022-08-03T02:24:58;3.17;;;1.27;;
16737;SDS011;17906;47.684;10.806;2022-08-03T02:27:26;8.33;;;1.80;;
16737;SDS011;17906;47.684;10.806;2022-08-03T02:29:55;1.90;;;1.40;;
16737;SDS011;17906;47.684;10.806;2022-08-03T02:32:28;2.47;;;1.47;;
16737;SDS011;17906;47.684;10.806;2022-08-03T02:34:58;1.90;;;1.33;;
16737;SDS011;17906;47.684;10.806;2022-08-03T02:37:27;2.90;;;1.67;;
16737;SDS011;17906;47.684;10.806;2022-08-03T02:39:58;3.00;;;1.50;;
16737;SDS011;17906;47.684;10.806;2022-08-03T02:42:27;2.53;;;1.50;;
16737;SDS011;17906;47.684;10.806;2022-08-03T02:44:57;3.10;;;1.80;;
16737;SDS011;17906;47.684;10.806;2022-08-03T02:47:27;1.40;;;1.10;;
16737;SDS011;17906;47.684;10.806;2022-08-03T02:49:54;3.63;;;1.27;;
16737;SDS011;17906;47.684;10.806;2022-08-03T02:52:24;4.73;;;1.50;;
16737;SDS011;17906;47.684;10.806;2022-08-03T02:54:55;1.40;;;1.20;;
16737;SDS011;17906;47.684;10.806;2022-08-03T02:57:22;4.10;;;1.50;;
16737;SDS011;17906;47.684;10.806;2022-08-03T02:59:52;2.63;;;1.23;;
16737;SDS011;17906;47.684;10.806;2022-08-03T03:02:19;4.67;;;1.43;;
16737;SDS011;17906;47.684;10.806;2022-08-03T03:04:46;2.10;;;1.10;;
16737;SDS011;17906;47.684;10.806;2022-08-03T03:07:16;1.60;;;1.27;;
16737;SDS011;17906;47.684;10.806;2022-08-03T03:09:43;3.07;;;1.53;;
16737;SDS011;17906;47.684;10.806;2022-08-03T03:12:12;2.57;;;1.30;;
16737;SDS011;17906;47.684;10.806;2022-08-03T03:14:39;1.87;;;1.43;;
16737;SDS011;17906;47.684;10.806;2022-08-03T03:17:06;1.50;;;1.20;;
16737;SDS011;17906;47.684;10.806;2022-08-03T03:19:35;1.77;;;1.30;;
16737;SDS011;17906;47.684;10.806;2022-08-03T03:22:05;2.60;;;1.47;;
16737;SDS011;17906;47.684;10.806;2022-08-03T03:24:33;2.10;;;1.30;;
16737;SDS011;17906;47.684;10.806;2022-08-03T03:27:01;1.47;;;1.20;;
16737;SDS011;17906;47.684;10.806;2022-08-03T03:29:30;1.50;;;1.03;;
16737;SDS011;17906;47.684;10.806;2022-08-03T03:31:59;2.10;;;1.50;;
16737;SDS011;17906;47.684;10.806;2022-08-03T03:34:26;2.00;;;1.50;;
16737;SDS011;17906;47.684;10.806;2022-08-03T03:36:54;2.80;;;1.67;;
16737;SDS011;17906;47.684;10.806;2022-08-03T03:39:21;2.83;;;1.47;;
16737;SDS011;17906;47.684;10.806;2022-08-03T03:41:48;2.90;;;1.80;;
16737;SDS011;17906;47.684;10.806;2022-08-03T03:44:14;3.50;;;1.70;;
16737;SDS011;17906;47.684;10.806;2022-08-03T03:46:43;1.80;;;1.30;;
16737;SDS011;17906;47.684;10.806;2022-08-03T03:49:09;2.50;;;1.50;;
16737;SDS011;17906;47.684;10.806;2022-08-03T03:51:36;2.00;;;1.40;;
16737;SDS011;17906;47.684;10.806;2022-08-03T03:54:03;2.63;;;1.40;;
16737;SDS011;17906;47.684;10.806;2022-08-03T03:56:31;2.00;;;1.60;;
16737;SDS011;17906;47.684;10.806;2022-08-03T03:58:57;2.10;;;1.50;;
16737;SDS011;17906;47.684;10.806;2022-08-03T04:01:24;3.20;;;1.30;;
16737;SDS011;17906;47.684;10.806;2022-08-03T04:03:52;2.17;;;1.10;;
16737;SDS011;17906;47.684;10.806;2022-08-03T04:06:18;1.40;;;1.17;;
16737;SDS011;17906;47.684;10.806;2022-08-03T04:09:03;3.10;;;1.37;;
16737;SDS011;17906;47.684;10.806;2022-08-03T04:11:48;4.30;;;1.47;;
16737;SDS011;17906;47.684;10.806;2022-08-03T04:14:18;3.70;;;1.60;;
16737;SDS011;17906;47.684;10.806;2022-08-03T04:16:47;2.17;;;1.50;;
16737;SDS011;17906;47.684;10.806;2022-08-03T04:19:22;1.23;;;1.07;;
16737;SDS011;17906;47.684;10.806;2022-08-03T04:21:53;2.70;;;1.10;;
16737;SDS011;17906;47.684;10.806;2022-08-03T04:24:23;1.40;;;1.17;;
16737;SDS011;17906;47.684;10.806;2022-08-03T04:26:55;4.23;;;1.20;;
16737;SDS011;17906;47.684;10.806;2022-08-03T04:29:23;1.10;;;1.00;;
16737;SDS011;17906;47.684;10.806;2022-08-03T04:31:53;1.30;;;1.10;;
16737;SDS011;17906;47.684;10.806;2022-08-03T04:34:24;2.57;;;1.80;;
16737;SDS011;17906;47.684;10.806;2022-08-03T04:36:51;2.30;;;1.63;;
16737;SDS011;17906;47.684;10.806;2022-08-03T04:39:22;2.30;;;1.60;;
16737;SDS011;17906;47.684;10.806;2022-08-03T04:41:50;3.97;;;1.83;;
16737;SDS011;17906;47.684;10.806;2022-08-03T04:44:20;3.93;;;1.60;;
16737;SDS011;17906;47.684;10.806;2022-08-03T04:46:48;4.33;;;1.70;;
16737;SDS011;17906;47.684;10.806;2022-08-03T04:49:16;4.80;;;2.00;;
16737;SDS011;17906;47.684;10.806;2022-08-03T04:51:46;2.73;;;1.73;;
16737;SDS011;17906;47.684;10.806;2022-08-03T04:54:14;5.47;;;1.90;;
16737;SDS011;17906;47.684;10.806;2022-08-03T04:56:41;5.80;;;2.00;;
16737;SDS011;17906;47.684;10.806;2022-08-03T04:59:08;2.73;;;2.07;;
16737;SDS011;17906;47.684;10.806;2022-08-03T05:01:35;4.57;;;1.97;;
16737;SDS011;17906;47.684;10.806;2022-08-03T05:04:02;3.10;;;1.83;;
16737;SDS011;17906;47.684;10.806;2022-08-03T05:06:29;4.27;;;1.97;;
16737;SDS011;17906;47.684;10.806;2022-08-03T05:08:57;2.43;;;1.77;;
16737;SDS011;17906;47.684;10.806;2022-08-03T05:11:23;3.87;;;1.90;;
16737;SDS011;17906;47.684;10.806;2022-08-03T05:13:50;6.60;;;1.77;;
16737;SDS011;17906;47.684;10.806;2022-08-03T05:16:17;6.07;;;1.90;;
16737;SDS011;17906;47.684;10.806;2022-08-03T05:18:43;3.73;;;2.20;;
16737;SDS011;17906;47.684;10.806;2022-08-03T05:21:10;3.73;;;2.60;;
16737;SDS011;17906;47.684;10.806;2022-08-03T05:23:38;9.07;;;3.10;;
16737;SDS011;17906;47.684;10.806;2022-08-03T05:26:06;5.47;;;2.80;;
16737;SDS011;17906;47.684;10.806;2022-08-03T05:28:35;5.90;;;3.10;;
16737;SDS011;17906;47.684;10.806;2022-08-03T05:31:02;12.47;;;3.40;;
16737;SDS011;17906;47.684;10.806;2022-08-03T05:33:28;3.33;;;2.83;;
16737;SDS011;17906;47.684;10.806;2022-08-03T05:35:55;4.57;;;2.77;;
16737;SDS011;17906;47.684;10.806;2022-08-03T05:38:22;3.20;;;2.57;;
16737;SDS011;17906;47.684;10.806;2022-08-03T05:40:48;3.90;;;3.10;;
16737;SDS011;17906;47.684;10.806;2022-08-03T05:43:16;5.33;;;3.07;;
16737;SDS011;17906;47.684;10.806;2022-08-03T05:45:43;4.27;;;2.80;;
16737;SDS011;17906;47.684;10.806;2022-08-03T05:48:09;6.67;;;3.07;;
16737;SDS011;17906;47.684;10.806;2022-08-03T05:50:36;3.47;;;2.60;;
16737;SDS011;17906;47.684;10.806;2022-08-03T05:53:02;3.90;;;2.60;;
16737;SDS011;17906;47.684;10.806;2022-08-03T05:55:29;3.83;;;2.90;;
16737;SDS011;17906;47.684;10.806;2022-08-03T05:57:56;4.22;;;2.60;;
16737;SDS011;17906;47.684;10.806;2022-08-03T06:00:23;3.97;;;2.70;;
16737;SDS011;17906;47.684;10.806;2022-08-03T06:02:50;3.97;;;2.35;;
16737;SDS011;17906;47.684;10.806;2022-08-03T06:05:17;3.95;;;2.53;;
16737;SDS011;17906;47.684;10.806;2022-08-03T06:07:43;5.65;;;2.55;;
16737;SDS011;17906;47.684;10.806;2022-08-03T06:10:10;3.42;;;2.58;;
16737;SDS011;17906;47.684;10.806;2022-08-03T06:12:37;2.60;;;2.20;;
16737;SDS011;17906;47.684;10.806;2022-08-03T06:15:08;3.53;;;2.20;;
16737;SDS011;17906;47.684;10.806;2022-08-03T06:17:45;4.70;;;2.50;;
16737;SDS011;17906;47.684;10.806;2022-08-03T06:20:12;4.28;;;2.30;;
16737;SDS011;17906;47.684;10.806;2022-08-03T06:22:41;2.70;;;2.22;;
16737;SDS011;17906;47.684;10.806;2022-08-03T06:25:07;3.35;;;2.17;;
16737;SDS011;17906;47.684;10.806;2022-08-03T06:27:34;3.15;;;2.40;;
16737;SDS011;17906;47.684;10.806;2022-08-03T06:30:04;2.80;;;2.30;;
16737;SDS011;17906;47.684;10.806;2022-08-03T06:32:32;4.40;;;2.55;;
16737;SDS011;17906;47.684;10.806;2022-08-03T06:35:01;3.30;;;2.42;;
16737;SDS011;17906;47.684;10.806;2022-08-03T06:37:27;4.00;;;2.10;;
16737;SDS011;17906;47.684;10.806;2022-08-03T06:39:54;3.55;;;2.10;;
16737;SDS011;17906;47.684;10.806;2022-08-03T06:42:20;6.05;;;2.38;;
16737;SDS011;17906;47.684;10.806;2022-08-03T06:44:47;3.15;;;2.10;;
16737;SDS011;17906;47.684;10.806;2022-08-03T06:47:14;3.88;;;1.90;;
16737;SDS011;17906;47.684;10.806;2022-08-03T06:49:40;3.47;;;1.55;;
16737;SDS011;17906;47.684;10.806;2022-08-03T06:52:08;3.00;;;1.90;;
16737;SDS011;17906;47.684;10.806;2022-08-03T06:54:35;2.67;;;1.63;;
16737;SDS011;17906;47.684;10.806;2022-08-03T06:57:01;3.45;;;2.00;;
16737;SDS011;17906;47.684;10.806;2022-08-03T06:59:28;4.75;;;1.80;;
16737;SDS011;17906;47.684;10.806;2022-08-03T07:01:55;4.20;;;1.95;;
16737;SDS011;17906;47.684;10.806;2022-08-03T07:04:21;3.67;;;1.90;;
16737;SDS011;17906;47.684;10.806;2022-08-03T07:06:48;2.65;;;1.70;;
16737;SDS011;17906;47.684;10.806;2022-08-03T07:09:16;2.10;;;1.70;;
16737;SDS011;17906;47.684;10.806;2022-08-03T07:11:42;2.50;;;1.92;;
16737;SDS011;17906;47.684;10.806;2022-08-03T07:14:09;2.15;;;1.70;;
16737;SDS011;17906;47.684;10.806;2022-08-03T07:16:36;2.72;;;1.90;;
16737;SDS011;17906;47.684;10.806;2022-08-03T07:19:02;2.65;;;1.70;;
16737;SDS011;17906;47.684;10.806;2022-08-03T07:21:29;1.92;;;1.42;;
16737;SDS011;17906;47.684;10.806;2022-08-03T07:23:55;2.35;;;1.80;;
16737;SDS011;17906;47.684;10.806;2022-08-03T07:26:23;2.25;;;1.65;;
16737;SDS011;17906;47.684;10.806;2022-08-03T07:28:49;3.50;;;2.17;;
16737;SDS011;17906;47.684;10.806;2022-08-03T07:31:16;3.28;;;2.03;;
16737;SDS011;17906;47.684;10.806;2022-08-03T07:33:43;3.15;;;1.70;;
16737;SDS011;17906;47.684;10.806;2022-08-03T07:36:10;2.55;;;1.65;;
16737;SDS011;17906;47.684;10.806;2022-08-03T07:38:36;3.78;;;1.80;;
16737;SDS011;17906;47.684;10.806;2022-08-03T07:41:03;1.80;;;1.67;;
16737;SDS011;17906;47.684;10.806;2022-08-03T07:43:31;5.47;;;2.08;;
16737;SDS011;17906;47.684;10.806;2022-08-03T07:46:00;1.85;;;1.52;;
16737;SDS011;17906;47.684;10.806;2022-08-03T07:48:32;1.98;;;1.77;;
16737;SDS011;17906;47.684;10.806;2022-08-03T07:50:58;2.13;;;1.40;;
16737;SDS011;17906;47.684;10.806;2022-08-03T07:53:25;3.25;;;1.88;;
16737;SDS011;17906;47.684;10.806;2022-08-03T07:55:52;3.05;;;1.55;;
16737;SDS011;17906;47.684;10.806;2022-08-03T07:58:18;1.95;;;1.52;;
16737;SDS011;17906;47.684;10.806;2022-08-03T08:00:48;2.85;;;1.85;;
16737;SDS011;17906;47.684;10.806;2022-08-03T08:03:16;3.38;;;1.73;;
16737;SDS011;17906;47.684;10.806;2022-08-03T08:05:43;1.67;;;1.50;;
16737;SDS011;17906;47.684;10.806;2022-08-03T08:08:10;4.28;;;1.73;;
16737;SDS011;17906;47.684;10.806;2022-08-03T08:10:37;2.28;;;1.70;;
16737;SDS011;17906;47.684;10.806;2022-08-03T08:13:03;2.53;;;1.80;;
16737;SDS011;17906;47.684;10.806;2022-08-03T08:15:30;3.08;;;1.60;;
16737;SDS011;17906;47.684;10.806;2022-08-03T08:17:59;2.75;;;1.70;;
16737;SDS011;17906;47.684;10.806;2022-08-03T08:20:27;2.92;;;1.50;;
16737;SDS011;17906;47.684;10.806;2022-08-03T08:22:55;2.47;;;1.90;;
16737;SDS011;17906;47.684;10.806;2022-08-03T08:25:23;1.92;;;1.63;;
16737;SDS011;17906;47.684;10.806;2022-08-03T08:27:49;2.20;;;2.00;;
16737;SDS011;17906;47.684;10.806;2022-08-03T08:30:17;2.25;;;1.95;;
16737;SDS011;17906;47.684;10.806;2022-08-03T08:32:45;2.60;;;1.95;;
16737;SDS011;17906;47.684;10.806;2022-08-03T08:35:13;2.45;;;1.73;;
16737;SDS011;17906;47.684;10.806;2022-08-03T08:37:40;4.72;;;1.70;;
16737;SDS011;17906;47.684;10.806;2022-08-03T08:40:07;3.88;;;2.00;;
16737;SDS011;17906;47.684;10.806;2022-08-03T08:42:37;2.03;;;1.60;;
16737;SDS011;17906;47.684;10.806;2022-08-03T08:45:04;3.13;;;1.65;;
16737;SDS011;17906;47.684;10.806;2022-08-03T08:47:33;2.58;;;1.85;;
16737;SDS011;17906;47.684;10.806;2022-08-03T08:50:02;2.53;;;1.90;;
16737;SDS011;17906;47.684;10.806;2022-08-03T08:52:32;1.70;;;1.50;;
16737;SDS011;17906;47.684;10.806;2022-08-03T08:55:01;3.08;;;1.77;;
16737;SDS011;17906;47.684;10.806;2022-08-03T08:57:29;1.90;;;1.67;;
16737;SDS011;17906;47.684;10.806;2022-08-03T08:59:58;1.88;;;1.50;;
16737;SDS011;17906;47.684;10.806;2022-08-03T09:02:28;2.83;;;1.85;;
16737;SDS011;17906;47.684;10.806;2022-08-03T09:04:56;2.17;;;1.60;;
16737;SDS011;17906;47.684;10.806;2022-08-03T09:07:23;1.88;;;1.67;;
16737;SDS011;17906;47.684;10.806;2022-08-03T09:09:51;3.22;;;1.50;;
16737;SDS011;17906;47.684;10.806;2022-08-03T09:12:18;1.55;;;1.45;;
16737;SDS011;17906;47.684;10.806;2022-08-03T09:14:45;6.10;;;1.75;;
16737;SDS011;17906;47.684;10.806;2022-08-03T09:17:11;2.30;;;1.50;;
16737;SDS011;17906;47.684;10.806;2022-08-03T09:19:38;1.70;;;1.60;;
16737;SDS011;17906;47.684;10.806;2022-08-03T09:22:08;1.90;;;1.73;;
16737;SDS011;17906;47.684;10.806;2022-08-03T09:24:36;1.83;;;1.60;;
16737;SDS011;17906;47.684;10.806;2022-08-03T09:27:20;2.45;;;1.60;;
16737;SDS011;17906;47.684;10.806;2022-08-03T09:29:47;5.45;;;1.70;;
16737;SDS011;17906;47.684;10.806;2022-08-03T09:32:14;1.38;;;1.27;;
16737;SDS011;17906;47.684;10.806;2022-08-03T09:34:45;2.30;;;1.48;;
16737;SDS011;17906;47.684;10.806;2022-08-03T09:37:12;5.32;;;1.70;;
16737;SDS011;17906;47.684;10.806;2022-08-03T09:39:39;3.63;;;1.60;;
16737;SDS011;17906;47.684;10.806;2022-08-03T09:42:06;1.90;;;1.65;;
16737;SDS011;17906;47.684;10.806;2022-08-03T09:44:36;3.30;;;1.60;;
16737;SDS011;17906;47.684;10.806;2022-08-03T09:47:06;2.78;;;1.50;;
16737;SDS011;17906;47.684;10.806;2022-08-03T09:49:34;2.05;;;1.50;;
16737;SDS011;17906;47.684;10.806;2022-08-03T09:52:01;1.50;;;1.40;;
16737;SDS011;17906;47.684;10.806;2022-08-03T09:54:38;2.00;;;1.60;;
16737;SDS011;17906;47.684;10.806;2022-08-03T09:57:05;1.90;;;1.70;;
16737;SDS011;17906;47.684;10.806;2022-08-03T09:59:32;1.50;;;1.40;;
16737;SDS011;17906;47.684;10.806;2022-08-03T10:02:01;1.50;;;1.40;;
16737;SDS011;17906;47.684;10.806;2022-08-03T10:04:28;1.40;;;1.30;;
16737;SDS011;17906;47.684;10.806;2022-08-03T10:07:01;2.72;;;1.52;;
16737;SDS011;17906;47.684;10.806;2022-08-03T10:09:33;2.67;;;1.30;;
16737;SDS011;17906;47.684;10.806;2022-08-03T10:12:07;2.45;;;1.52;;
16737;SDS011;17906;47.684;10.806;2022-08-03T10:14:35;1.38;;;1.27;;
16737;SDS011;17906;47.684;10.806;2022-08-03T10:17:04;2.30;;;1.50;;
16737;SDS011;17906;47.684;10.806;2022-08-03T10:19:31;3.03;;;1.50;;
16737;SDS011;17906;47.684;10.806;2022-08-03T10:22:00;1.50;;;1.40;;
16737;SDS011;17906;47.684;10.806;2022-08-03T10:24:29;1.80;;;1.38;;
16737;SDS011;17906;47.684;10.806;2022-08-03T10:27:00;2.05;;;1.60;;
16737;SDS011;17906;47.684;10.806;2022-08-03T10:29:32;1.70;;;1.30;;
16737;SDS011;17906;47.684;10.806;2022-08-03T10:32:05;1.40;;;1.30;;
16737;SDS011;17906;47.684;10.806;2022-08-03T10:34:36;1.75;;;1.50;;
16737;SDS011;17906;47.684;10.806;2022-08-03T10:37:07;1.85;;;1.50;;
16737;SDS011;17906;47.684;10.806;2022-08-03T10:39:36;3.95;;;1.60;;
16737;SDS011;17906;47.684;10.806;2022-08-03T10:42:03;1.63;;;1.38;;
16737;SDS011;17906;47.684;10.806;2022-08-03T10:44:31;2.50;;;1.70;;
16737;SDS011;17906;47.684;10.806;2022-08-03T10:47:03;2.55;;;1.40;;
16737;SDS011;17906;47.684;10.806;2022-08-03T10:49:31;2.40;;;1.50;;
16737;SDS011;17906;47.684;10.806;2022-08-03T10:51:58;1.80;;;1.33;;
16737;SDS011;17906;47.684;10.806;2022-08-03T10:54:37;2.38;;;1.30;;
16737;SDS011;17906;47.684;10.806;2022-08-03T10:57:42;3.58;;;1.40;;
16737;SDS011;17906;47.684;10.806;2022-08-03T11:00:14;2.08;;;1.70;;
16737;SDS011;17906;47.684;10.806;2022-08-03T11:03:01;4.03;;;1.42;;
16737;SDS011;17906;47.684;10.806;2022-08-03T11:05:33;1.80;;;1.60;;
16737;SDS011;17906;47.684;10.806;2022-08-03T11:08:24;1.70;;;1.55;;
16737;SDS011;17906;47.684;10.806;2022-08-03T11:10:53;2.13;;;1.45;;
16737;SDS011;17906;47.684;10.806;2022-08-03T11:13:21;2.33;;;1.50;;
16737;SDS011;17906;47.684;10.806;2022-08-03T11:15:50;1.67;;;1.55;;
16737;SDS011;17906;47.684;10.806;2022-08-03T11:18:19;1.58;;;1.45;;
16737;SDS011;17906;47.684;10.806;2022-08-03T11:20:46;2.33;;;1.23;;
16737;SDS011;17906;47.684;10.806;2022-08-03T11:23:15;1.50;;;1.40;;
16737;SDS011;17906;47.684;10.806;2022-08-03T11:28:38;5.07;;;1.60;;
16737;SDS011;17906;47.684;10.806;2022-08-03T11:34:22;1.80;;;1.52;;
16737;SDS011;17906;47.684;10.806;2022-08-03T11:39:50;1.60;;;1.48;;
16737;SDS011;17906;47.684;10.806;2022-08-03T11:42:40;1.67;;;1.45;;
16737;SDS011;17906;47.684;10.806;2022-08-03T11:45:11;2.20;;;1.42;;
16737;SDS011;17906;47.684;10.806;2022-08-03T11:47:39;4.82;;;1.70;;
16737;SDS011;17906;47.684;10.806;2022-08-03T11:50:09;2.42;;;1.70;;
16737;SDS011;17906;47.684;10.806;2022-08-03T11:52:39;1.50;;;1.40;;
16737;SDS011;17906;47.684;10.806;2022-08-03T11:55:10;1.98;;;1.50;;
16737;SDS011;17906;47.684;10.806;2022-08-03T11:57:42;1.92;;;1.40;;
16737;SDS011;17906;47.684;10.806;2022-08-03T12:00:20;2.13;;;1.40;;
16737;SDS011;17906;47.684;10.806;2022-08-03T12:02:58;2.33;;;1.20;;
16737;SDS011;17906;47.684;10.806;2022-08-03T12:08:16;1.70;;;1.40;;
16737;SDS011;17906;47.684;10.806;2022-08-03T12:10:45;3.28;;;1.40;;
16737;SDS011;17906;47.684;10.806;2022-08-03T12:13:14;2.72;;;1.40;;
16737;SDS011;17906;47.684;10.806;2022-08-03T12:15:41;1.45;;;1.30;;
16737;SDS011;17906;47.684;10.806;2022-08-03T12:18:12;5.00;;;1.60;;
16737;SDS011;17906;47.684;10.806;2022-08-03T12:20:40;2.95;;;1.40;;
16737;SDS011;17906;47.684;10.806;2022-08-03T12:23:10;1.48;;;1.35;;
16737;SDS011;17906;47.684;10.806;2022-08-03T12:25:38;1.50;;;1.40;;
16737;SDS011;17906;47.684;10.806;2022-08-03T12:28:08;1.40;;;1.15;;
16737;SDS011;17906;47.684;10.806;2022-08-03T12:30:41;1.85;;;1.40;;
16737;SDS011;17906;47.684;10.806;2022-08-03T12:33:12;2.22;;;1.25;;
16737;SDS011;17906;47.684;10.806;2022-08-03T12:35:40;2.10;;;1.63;;
16737;SDS011;17906;47.684;10.806;2022-08-03T12:38:07;2.42;;;1.40;;
16737;SDS011;17906;47.684;10.806;2022-08-03T12:40:35;4.53;;;1.50;;
16737;SDS011;17906;47.684;10.806;2022-08-03T12:43:08;1.80;;;1.52;;
16737;SDS011;17906;47.684;10.806;2022-08-03T12:45:36;2.47;;;1.58;;
16737;SDS011;17906;47.684;10.806;2022-08-03T12:48:03;1.85;;;1.50;;
16737;SDS011;17906;47.684;10.806;2022-08-03T12:50:35;1.92;;;1.52;;
16737;SDS011;17906;47.684;10.806;2022-08-03T12:53:03;2.10;;;1.67;;
16737;SDS011;17906;47.684;10.806;2022-08-03T12:55:32;1.58;;;1.48;;
16737;SDS011;17906;47.684;10.806;2022-08-03T12:58:00;2.58;;;1.60;;
16737;SDS011;17906;47.684;10.806;2022-08-03T13:00:27;2.80;;;1.77;;
16737;SDS011;17906;47.684;10.806;2022-08-03T13:02:58;2.17;;;1.70;;
16737;SDS011;17906;47.684;10.806;2022-08-03T13:05:31;1.70;;;1.60;;
16737;SDS011;17906;47.684;10.806;2022-08-03T13:08:16;1.92;;;1.75;;
16737;SDS011;17906;47.684;10.806;2022-08-03T13:10:42;1.42;;;1.33;;
16737;SDS011;17906;47.684;10.806;2022-08-03T13:13:11;1.73;;;1.50;;
16737;SDS011;17906;47.684;10.806;2022-08-03T13:15:38;2.20;;;1.48;;
16737;SDS011;17906;47.684;10.806;2022-08-03T13:18:04;2.15;;;1.55;;
16737;SDS011;17906;47.684;10.806;2022-08-03T13:20:31;2.13;;;1.50;;
16737;SDS011;17906;47.684;10.806;2022-08-03T13:22:58;2.33;;;1.60;;
16737;SDS011;17906;47.684;10.806;2022-08-03T13:25:25;2.30;;;1.60;;
16737;SDS011;17906;47.684;10.806;2022-08-03T13:27:51;1.98;;;1.40;;
16737;SDS011;17906;47.684;10.806;2022-08-03T13:30:19;2.22;;;1.55;;
16737;SDS011;17906;47.684;10.806;2022-08-03T13:32:46;2.45;;;1.45;;
16737;SDS011;17906;47.684;10.806;2022-08-03T13:35:12;2.50;;;1.80;;
16737;SDS011;17906;47.684;10.806;2022-08-03T13:37:39;3.05;;;1.83;;
16737;SDS011;17906;47.684;10.806;2022-08-03T13:40:06;1.90;;;1.60;;
16737;SDS011;17906;47.684;10.806;2022-08-03T13:42:34;1.95;;;1.75;;
16737;SDS011;17906;47.684;10.806;2022-08-03T13:45:01;1.70;;;1.60;;
16737;SDS011;17906;47.684;10.806;2022-08-03T13:47:31;2.83;;;1.48;;
16737;SDS011;17906;47.684;10.806;2022-08-03T13:49:57;1.40;;;1.30;;
16737;SDS011;17906;47.684;10.806;2022-08-03T13:52:24;1.70;;;1.38;;
16737;SDS011;17906;47.684;10.806;2022-08-03T13:54:51;4.00;;;1.50;;
16737;SDS011;17906;47.684;10.806;2022-08-03T13:57:18;3.22;;;1.52;;
16737;SDS011;17906;47.684;10.806;2022-08-03T13:59:44;2.30;;;1.50;;
16737;SDS011;17906;47.684;10.806;2022-08-03T14:02:11;2.17;;;1.55;;
16737;SDS011;17906;47.684;10.806;2022-08-03T14:04:39;4.22;;;1.90;;
16737;SDS011;17906;47.684;10.806;2022-08-03T14:07:05;2.88;;;1.50;;
16737;SDS011;17906;47.684;10.806;2022-08-03T14:09:32;2.30;;;1.90;;
16737;SDS011;17906;47.684;10.806;2022-08-03T14:11:58;1.90;;;1.70;;
16737;SDS011;17906;47.684;10.806;2022-08-03T14:14:25;2.10;;;1.67;;
16737;SDS011;17906;47.684;10.806;2022-08-03T14:16:51;2.10;;;1.50;;
16737;SDS011;17906;47.684;10.806;2022-08-03T14:19:18;2.13;;;1.77;;
16737;SDS011;17906;47.684;10.806;2022-08-03T14:21:46;4.28;;;1.60;;
16737;SDS011;17906;47.684;10.806;2022-08-03T14:24:13;2.00;;;1.80;;
16737;SDS011;17906;47.684;10.806;2022-08-03T14:26:40;2.08;;;1.70;;
16737;SDS011;17906;47.684;10.806;2022-08-03T14:29:06;2.65;;;1.70;;
16737;SDS011;17906;47.684;10.806;2022-08-03T14:31:33;3.75;;;1.75;;
16737;SDS011;17906;47.684;10.806;2022-08-03T14:33:59;3.75;;;1.85;;
16737;SDS011;17906;47.684;10.806;2022-08-03T14:36:26;1.67;;;1.48;;
16737;SDS011;17906;47.684;10.806;2022-08-03T14:38:53;2.75;;;1.58;;
16737;SDS011;17906;47.684;10.806;2022-08-03T14:41:20;2.80;;;1.73;;
16737;SDS011;17906;47.684;10.806;2022-08-03T14:43:47;2.45;;;1.63;;
16737;SDS011;17906;47.684;10.806;2022-08-03T14:46:13;2.70;;;1.80;;
16737;SDS011;17906;47.684;10.806;2022-08-03T14:48:41;2.45;;;1.70;;
16737;SDS011;17906;47.684;10.806;2022-08-03T14:51:07;1.70;;;1.60;;
16737;SDS011;17906;47.684;10.806;2022-08-03T14:53:34;2.00;;;1.77;;